Data for 07/06/2015

Time Sea-Level Adjusted Pressure Absolute Pressure Temperature Relative Humidity Dew Point   
(mb) (inHg) (mb) (inHg) (C) (F) (%) (C) (F)
00:05 1025 30.27 854 25.22 12.1 53.8 78 8.3 47
00:10 1025 30.27 854 25.22 12 53.6 78 8.4 47.1
00:15 1025 30.27 854 25.22 12 53.6 78 8.4 47.1
00:20 1025 30.27 854 25.22 12 53.6 78 8.4 47.1
00:25 1025 30.27 854 25.22 12 53.5 79 8.4 47.1
00:30 1025 30.27 854 25.22 12 53.6 79 8.4 47.2
00:35 1025 30.27 854 25.22 12 53.6 78 8.4 47.1
00:40 1025 30.27 854 25.22 12 53.6 78 8.3 46.9
00:45 1025 30.27 854 25.22 12 53.6 78 8.3 46.9
00:50 1025 30.27 854 25.22 12.1 53.7 78 8.3 47
00:55 1025 30.27 854 25.22 12 53.7 78 8.3 47
01:00 1025 30.27 854 25.22 12 53.6 79 8.4 47.2
01:05 1025 30.27 854 25.22 12 53.6 79 8.4 47.1
01:10 1025 30.27 854 25.22 12 53.6 79 8.5 47.3
01:15 1025 30.27 854 25.22 12 53.5 79 8.4 47.2
01:20 1025 30.27 854 25.22 11.9 53.4 80 8.5 47.4
01:25 1025 30.27 854 25.22 11.9 53.5 80 8.5 47.3
01:30 1025 30.27 854 25.22 11.9 53.4 80 8.6 47.4
01:35 1025 30.27 854 25.22 11.9 53.4 81 8.7 47.7
01:40 1025 30.27 854 25.22 11.9 53.3 83 9 48.2
01:45 1025 30.27 854 25.22 11.8 53.2 84 9.2 48.5
01:50 1025 30.27 854 25.22 11.6 52.9 85 9.2 48.6
01:55 1025 30.27 854 25.22 11.5 52.7 86 9.2 48.6
02:00 1025 30.27 854 25.22 11.3 52.4 86 9.1 48.5
02:05 1025 30.27 854 25.22 11.2 52.1 87 9.1 48.4
02:10 1025 30.27 854 25.22 11.1 52 88 9.2 48.6
02:15 1025 30.27 854 25.22 11.1 51.9 88 9.2 48.6
02:20 1025 30.27 854 25.22 11 51.8 89 9.3 48.7
02:25 1025 30.27 854 25.22 11.1 52 88 9.3 48.7
02:30 1025 30.27 854 25.22 11.3 52.3 88 9.3 48.8
02:35 1025 30.27 854 25.22 11.4 52.4 87 9.3 48.7
02:40 1025 30.27 854 25.22 11.5 52.6 86 9.2 48.6
02:45 1025 30.27 854 25.22 11.4 52.5 86 9.2 48.5
02:50 1025 30.27 854 25.22 11.3 52.4 86 9.1 48.3
02:55 1025 30.27 854 25.22 11.3 52.4 86 9.1 48.3
03:00 1025 30.27 854 25.22 11.3 52.3 86 9 48.2
03:05 1025 30.27 854 25.22 11.2 52.2 86 9 48.3
03:10 1025 30.27 854 25.22 11.2 52.2 86 9 48.3
03:15 1025 30.27 854 25.22 11.2 52.2 86 9.1 48.3
03:20 1025 30.27 854 25.22 11.2 52.2 87 9.1 48.3
03:25 1025 30.27 854 25.22 11.2 52.1 87 9.1 48.3
03:30 1025 30.27 854 25.22 11.2 52.1 86 9 48.2
03:35 1025 30.27 854 25.22 11.2 52.1 86 8.9 48
03:40 1025 30.27 854 25.22 11.1 52 85 8.8 47.8
03:45 1025 30.27 854 25.22 11.1 52 85 8.8 47.8
03:50 1025 30.27 854 25.22 11.1 52 85 8.7 47.7
03:55 1025 30.27 854 25.22 11.1 51.9 85 8.7 47.7
04:00 1025 30.27 854 25.22 11.1 51.9 86 8.8 47.8
04:05 1025 30.27 854 25.22 11.1 51.9 86 8.8 47.8
04:10 1025 30.27 854 25.22 11.1 52 86 8.8 47.9
04:15 1025 30.27 854 25.22 11.1 52 86 8.8 47.8
04:20 1025 30.27 854 25.22 11.1 52 85 8.7 47.7
04:25 1025 30.27 854 25.22 11 51.9 86 8.7 47.7
04:30 1025 30.27 854 25.22 11 51.8 86 8.8 47.8
04:35 1025 30.27 854 25.22 10.9 51.6 86 8.7 47.6
04:40 1025 30.27 854 25.22 11 51.7 86 8.7 47.6
04:45 1025 30.27 854 25.22 11.1 51.9 85 8.7 47.7
04:50 1025 30.27 854 25.22 11.1 52 85 8.7 47.7
04:55 1025 30.27 854 25.22 11.1 52 84 8.6 47.5
05:00 1025 30.27 854 25.22 11.1 52 84 8.6 47.4
05:05 1025 30.27 854 25.22 11.1 51.9 85 8.6 47.4
05:10 1025 30.27 854 25.22 11.1 52 84 8.6 47.4
05:15 1025 30.27 854 25.22 11.1 52 84 8.6 47.4
05:20 1025 30.27 854 25.22 11.1 52 84 8.5 47.4
05:25 1025 30.27 854 25.22 11.1 52 84 8.6 47.4
05:30 1025 30.27 854 25.22 11.1 52 84 8.6 47.5
05:35 1025 30.27 854 25.22 11.1 52 85 8.7 47.6
05:40 1025 30.27 854 25.22 11.2 52.1 84 8.6 47.4
05:45 1025 30.27 854 25.22 11.2 52.1 85 8.7 47.6
05:50 1025 30.27 854 25.22 11 51.8 85 8.7 47.6
05:55 1025 30.27 854 25.22 11 51.7 86 8.7 47.7
06:00 1025 30.27 854 25.22 10.9 51.6 86 8.6 47.5
06:05 1025 30.27 854 25.22 10.9 51.7 85 8.5 47.4
06:10 1025 30.27 854 25.22 10.9 51.6 86 8.6 47.4
06:15 1025 30.27 854 25.22 11.1 51.9 84 8.5 47.3
06:20 1025 30.27 854 25.22 11.3 52.3 84 8.6 47.5
06:25 1025 30.27 854 25.22 11.3 52.3 84 8.7 47.6
06:30 1025 30.27 854 25.22 11.2 52.1 85 8.7 47.7
06:35 1025 30.27 854 25.22 11.2 52.2 85 8.8 47.8
06:40 1025 30.27 854 25.22 11.3 52.4 84 8.7 47.7
06:45 1025 30.27 854 25.22 11.3 52.4 83 8.6 47.5
06:50 1025 30.27 854 25.22 11.4 52.5 83 8.6 47.4
06:55 1025 30.27 854 25.22 11.4 52.5 82 8.5 47.2
07:00 1025 30.27 855 25.25 11.3 52.3 83 8.5 47.4
07:05 1025 30.27 855 25.25 11.4 52.6 82 8.5 47.3
07:10 1025 30.27 855 25.25 11.5 52.7 82 8.5 47.3
07:15 1025 30.27 855 25.25 11.5 52.8 81 8.4 47.1
07:20 1026 30.3 855 25.25 11.7 53.1 81 8.5 47.3
07:25 1026 30.3 855 25.25 11.9 53.4 80 8.5 47.3
07:30 1026 30.3 855 25.25 11.9 53.4 79 8.4 47.2
07:35 1026 30.3 855 25.25 11.8 53.2 80 8.4 47.2
07:40 1026 30.3 855 25.25 11.9 53.4 79 8.4 47.2
07:45 1026 30.3 855 25.25 12 53.5 79 8.4 47.1
07:50 1026 30.3 855 25.25 12 53.5 78 8.3 46.9
07:55 1026 30.3 855 25.25 12 53.6 78 8.3 46.9
08:00 1026 30.3 855 25.25 12.2 53.9 77 8.4 47.1
08:05 1026 30.3 855 25.25 12.3 54.1 77 8.4 47.1
08:10 1026 30.3 855 25.25 12.5 54.5 75 8.3 46.9
08:15 1026 30.3 855 25.25 12.6 54.7 76 8.5 47.3
08:20 1026 30.3 855 25.25 12.6 54.7 75 8.3 47
08:25 1026 30.3 855 25.25 12.6 54.7 75 8.3 47
08:30 1026 30.3 855 25.25 12.7 54.9 74 8.3 47
08:35 1026 30.3 855 25.25 12.7 54.8 75 8.5 47.3
08:40 1025 30.27 855 25.25 12.7 54.8 75 8.5 47.2
08:45 1025 30.27 855 25.25 13 55.5 73 8.4 47.1
08:50 1025 30.27 855 25.25 13.3 55.9 73 8.5 47.3
08:55 1025 30.27 855 25.25 13.4 56.1 72 8.6 47.4
09:00 1025 30.27 855 25.25 13.4 56.1 73 8.6 47.5
09:05 1025 30.27 854 25.22 13.7 56.7 70 8.5 47.3
09:10 1025 30.27 854 25.22 13.7 56.6 70 8.4 47.1
09:15 1025 30.27 854 25.22 13.9 57 69 8.5 47.2
09:20 1025 30.27 854 25.22 14.1 57.3 69 8.6 47.5
09:25 1025 30.27 854 25.22 14.3 57.7 68 8.6 47.4
09:30 1025 30.27 854 25.22 14.4 57.8 69 8.7 47.7
09:35 1025 30.27 854 25.22 14.6 58.2 67 8.6 47.4
09:40 1025 30.27 854 25.22 14.5 58.1 68 8.7 47.7
09:45 1025 30.27 854 25.22 14.8 58.6 67 8.7 47.6
09:50 1025 30.27 854 25.22 14.9 58.8 66 8.6 47.4
09:55 1025 30.27 854 25.22 14.8 58.6 67 8.8 47.8
10:00 1025 30.27 854 25.22 14.9 58.7 67 8.8 47.8
10:05 1025 30.27 854 25.22 15.5 60 62 8.5 47.2
10:10 1025 30.27 854 25.22 15.9 60.6 61 8.5 47.4
10:15 1025 30.27 854 25.22 15.6 60.1 64 8.9 48.1
10:20 1025 30.27 854 25.22 15.8 60.5 60 8.2 46.8
10:25 1025 30.27 854 25.22 16.2 61.1 60 8.4 47.1
10:30 1025 30.27 854 25.22 16.1 61.1 61 8.6 47.6
10:35 1025 30.27 854 25.22 16.1 60.9 60 8.4 47.1
10:40 1025 30.27 854 25.22 16 60.9 61 8.5 47.3
10:45 1025 30.27 854 25.22 16.5 61.8 57 8.1 46.6
10:50 1025 30.27 854 25.22 16.9 62.4 60 9.2 48.5
10:55 1025 30.27 854 25.22 16.4 61.4 59 8.5 47.3
11:00 1024 30.24 854 25.22 16.2 61.1 59 8.3 46.9
11:05 1024 30.24 854 25.22 16.7 62.1 60 8.9 48.1
11:10 1024 30.24 854 25.22 16.8 62.2 57 8.2 46.8
11:15 1024 30.24 854 25.22 17.4 63.3 56 8.5 47.3
11:20 1024 30.24 854 25.22 17.1 62.8 58 8.9 48
11:25 1024 30.24 853 25.19 17.2 62.9 58 9 48.3
11:30 1024 30.24 853 25.19 17.1 62.7 57 8.6 47.4
11:35 1024 30.24 853 25.19 17.6 63.6 57 9.1 48.4
11:40 1024 30.24 853 25.19 17.3 63.2 57 8.7 47.7
11:45 1024 30.24 853 25.19 18.3 65 54 8.9 48
11:50 1024 30.24 853 25.19 18.4 65.1 54 8.9 48.1
11:55 1024 30.24 853 25.19 18.4 65.1 55 9.4 48.9
12:00 1024 30.24 853 25.19 18.2 64.7 55 9.1 48.4
12:05 1024 30.24 853 25.19 18 64.4 55 9 48.2
12:10 1024 30.24 853 25.19 17.9 64.2 57 9.5 49.1
12:15 1024 30.24 853 25.19 18.1 64.6 57 9.4 49
12:20 1024 30.24 853 25.19 18.8 65.9 52 8.9 48.1
12:25 1024 30.24 853 25.19 19.1 66.3 54 9.6 49.2
12:30 1024 30.24 853 25.19 19.2 66.5 53 9.6 49.3
12:35 1024 30.24 853 25.19 19.1 66.4 54 9.6 49.3
12:40 1024 30.24 853 25.19 19.4 66.8 51 9 48.1
12:45 1024 30.24 853 25.19 19.8 67.6 50 9.3 48.8
12:50 1023 30.21 853 25.19 19.8 67.6 53 10.1 50.2
12:55 1023 30.21 853 25.19 20.2 68.4 51 9.8 49.6
13:00 1023 30.21 852 25.16 20.2 68.4 53 10.5 50.9
13:05 1023 30.21 852 25.16 20.5 69 49 9.6 49.4
13:10 1023 30.21 852 25.16 20.7 69.2 48 9.5 49
13:15 1023 30.21 852 25.16 21.7 71 46 9.7 49.5
13:20 1023 30.21 852 25.16 21.7 71.1 45 9.6 49.2
13:25 1023 30.21 852 25.16 22.3 72.2 45 10 50
13:30 1023 30.21 852 25.16 21.6 71 47 9.9 49.9
13:35 1023 30.21 852 25.16 21.4 70.5 47 9.8 49.6
13:40 1023 30.21 852 25.16 22 71.6 46 9.9 49.8
13:45 1023 30.21 852 25.16 22.9 73.1 43 9.9 49.8
13:50 1023 30.21 852 25.16 22.8 73 47 11 51.8
13:55 1023 30.21 852 25.16 22.1 71.9 46 10.3 50.5
14:00 1023 30.21 852 25.16 22.4 72.3 45 10.2 50.3
14:05 1022 30.18 852 25.16 22.7 72.9 46 10.7 51.3
14:10 1022 30.18 852 25.16 22.7 72.9 45 10.3 50.5
14:15 1022 30.18 852 25.16 22.5 72.5 44 9.8 49.6
14:20 1022 30.18 851 25.13 22.4 72.3 43 9.3 48.7
14:25 1022 30.18 851 25.13 22.9 73.3 44 10.3 50.5
14:30 1022 30.18 851 25.13 23.6 74.5 41 9.7 49.5
14:35 1022 30.18 851 25.13 24 75.1 41 10.1 50.1
14:40 1022 30.18 851 25.13 24.1 75.5 39 9.4 49
14:45 1022 30.18 851 25.13 24.2 75.6 39 9.7 49.5
14:50 1022 30.18 851 25.13 24.7 76.4 42 11 51.8
14:55 1022 30.18 851 25.13 24.5 76 40 10.3 50.5
15:00 1022 30.18 851 25.13 23.4 74.2 40 9.3 48.7
15:05 1022 30.18 851 25.13 24.2 75.6 38 9.2 48.5
15:10 1022 30.18 851 25.13 24.8 76.6 39 9.9 49.9
15:15 1022 30.18 851 25.13 24.5 76 39 9.9 49.8
15:20 1021 30.15 851 25.13 23.9 75.1 40 9.7 49.5
15:25 1021 30.15 851 25.13 24 75.2 40 9.7 49.5
15:30 1021 30.15 851 25.13 24.6 76.3 37 9.3 48.8
15:35 1021 30.15 850 25.1 24.4 75.8 37 9 48.2
15:40 1021 30.15 850 25.1 24.5 76.2 36 8.7 47.6
15:45 1021 30.15 850 25.1 24.6 76.3 38 9.5 49.1
15:50 1021 30.15 850 25.1 24.5 76 38 9.3 48.8
15:55 1021 30.15 850 25.1 24.6 76.2 36 8.7 47.6
16:00 1021 30.15 850 25.1 25 77 31 7.1 44.8
16:05 1021 30.15 850 25.1 25 77 32 7.3 45.1
16:10 1021 30.15 850 25.1 25.8 78.4 30 7.2 44.9
16:15 1021 30.15 850 25.1 25.8 78.4 30 6.9 44.4
16:20 1021 30.15 850 25.1 25.2 77.4 30 6.5 43.7
16:25 1021 30.15 850 25.1 25.4 77.7 29 6.5 43.7
16:30 1021 30.15 850 25.1 25.4 77.6 28 6 42.8
16:35 1021 30.15 850 25.1 25.7 78.3 30 6.9 44.5
16:40 1021 30.15 850 25.1 25.3 77.6 33 8.1 46.5
16:45 1021 30.15 850 25.1 24.8 76.7 31 6.9 44.5
16:50 1021 30.15 850 25.1 24.8 76.7 34 8.1 46.5
16:55 1021 30.15 850 25.1 24.4 76 35 8.4 47.1
17:00 1021 30.15 850 25.1 24.2 75.5 36 8.5 47.2
17:05 1021 30.15 850 25.1 24.4 75.9 37 8.9 47.9
17:10 1021 30.15 850 25.1 23.9 75 36 8.2 46.8
17:15 1020 30.12 850 25.1 23.9 75.1 36 8.4 47
17:20 1020 30.12 850 25.1 23.7 74.6 38 8.7 47.6
17:25 1020 30.12 850 25.1 23.5 74.4 37 8.1 46.6
17:30 1020 30.12 850 25.1 23.6 74.4 38 8.5 47.3
17:35 1020 30.12 849 25.07 23.4 74.2 38 8.6 47.6
17:40 1020 30.12 849 25.07 23.4 74 38 8.5 47.4
17:45 1020 30.12 849 25.07 23.3 74 38 8.3 46.9
17:50 1020 30.12 849 25.07 23.4 74.1 38 8.5 47.3
17:55 1020 30.12 849 25.07 23.3 73.9 39 8.8 47.9
18:00 1020 30.12 849 25.07 23.1 73.6 39 8.6 47.4
18:05 1020 30.12 849 25.07 22.9 73.2 39 8.5 47.4
18:10 1020 30.12 849 25.07 22.7 72.8 40 8.5 47.3
18:15 1020 30.12 849 25.07 22.5 72.6 40 8.5 47.3
18:20 1020 30.12 849 25.07 22.3 72.2 40 8.3 47
18:25 1020 30.12 849 25.07 22.2 72 41 8.3 47
18:30 1020 30.12 849 25.07 22 71.6 41 8.4 47.1
18:35 1020 30.12 849 25.07 21.9 71.4 41 8.4 47
18:40 1020 30.12 850 25.1 21.9 71.4 42 8.4 47.2
18:45 1020 30.12 850 25.1 21.8 71.3 42 8.4 47.1
18:50 1020 30.12 850 25.1 21.7 71.1 41 8.2 46.7
18:55 1020 30.12 850 25.1 21.5 70.8 42 8.2 46.8
19:00 1020 30.12 850 25.1 21.5 70.6 42 8.2 46.8
19:05 1020 30.12 850 25.1 21.4 70.4 42 8.1 46.6
19:10 1020 30.12 850 25.1 21.2 70.2 43 8.3 47
19:15 1020 30.12 850 25.1 21.1 69.9 43 8.3 46.9
19:20 1020 30.12 850 25.1 21 69.7 44 8.2 46.8
19:25 1020 30.12 850 25.1 20.8 69.5 45 8.6 47.4
19:30 1020 30.12 850 25.1 20.7 69.2 45 8.5 47.3
19:35 1021 30.15 850 25.1 20.5 68.9 45 8.3 47
19:40 1021 30.15 850 25.1 20.4 68.7 45 8.2 46.8
19:45 1021 30.15 850 25.1 20.3 68.5 45 8.3 46.9
19:50 1021 30.15 850 25.1 20.2 68.3 46 8.4 47.1
19:55 1021 30.15 850 25.1 20 68 47 8.5 47.2
20:00 1021 30.15 850 25.1 19.8 67.7 48 8.5 47.3
20:05 1021 30.15 850 25.1 19.7 67.4 49 8.7 47.6
20:10 1021 30.15 850 25.1 19.5 67.1 49 8.7 47.7
20:15 1021 30.15 850 25.1 19.4 66.9 50 8.8 47.8
20:20 1021 30.15 850 25.1 19.2 66.6 51 8.9 48
20:25 1021 30.15 850 25.1 19.1 66.3 51 8.9 48
20:30 1021 30.15 850 25.1 19 66.2 51 8.8 47.8
20:35 1021 30.15 850 25.1 18.9 66.1 52 8.9 48.1
20:40 1021 30.15 850 25.1 18.8 65.8 52 8.9 48
20:45 1021 30.15 850 25.1 18.7 65.6 52 8.8 47.8
20:50 1021 30.15 850 25.1 18.6 65.5 52 8.8 47.8
20:55 1021 30.15 850 25.1 18.5 65.3 53 8.9 48
21:00 1021 30.15 851 25.13 18.4 65.1 53 8.7 47.7
21:05 1021 30.15 851 25.13 18.3 65 54 8.8 47.9
21:10 1021 30.15 851 25.13 18.2 64.8 54 8.8 47.9
21:15 1022 30.18 851 25.13 18.1 64.6 54 8.8 47.8
21:20 1022 30.18 851 25.13 18.1 64.5 54 8.7 47.7
21:25 1022 30.18 851 25.13 18 64.3 55 8.8 47.9
21:30 1022 30.18 851 25.13 17.9 64.1 55 8.9 48
21:35 1022 30.18 851 25.13 17.8 64 55 8.7 47.7
21:40 1022 30.18 851 25.13 17.7 63.9 56 8.8 47.9
21:45 1022 30.18 851 25.13 17.6 63.6 56 8.8 47.8
21:50 1022 30.18 851 25.13 17.4 63.4 56 8.7 47.7
21:55 1022 30.18 851 25.13 17.4 63.3 56 8.7 47.7
22:00 1022 30.18 851 25.13 17.3 63.2 56 8.7 47.6
22:05 1022 30.18 851 25.13 17.3 63.2 56 8.6 47.5
22:10 1022 30.18 851 25.13 17.3 63.1 56 8.6 47.4
22:15 1022 30.18 851 25.13 17.3 63.1 56 8.6 47.5
22:20 1022 30.18 851 25.13 17.2 62.9 57 8.6 47.4
22:25 1022 30.18 851 25.13 17.1 62.7 57 8.5 47.3
22:30 1022 30.18 851 25.13 17.1 62.8 57 8.5 47.3
22:35 1022 30.18 851 25.13 17.1 62.7 57 8.6 47.4
22:40 1022 30.18 851 25.13 16.9 62.5 57 8.5 47.3
22:45 1022 30.18 851 25.13 16.8 62.3 58 8.5 47.3
22:50 1022 30.18 851 25.13 16.7 62.1 58 8.5 47.2
22:55 1022 30.18 851 25.13 16.7 62 58 8.4 47.2
23:00 1022 30.18 851 25.13 16.6 61.9 58 8.3 47
23:05 1022 30.18 851 25.13 16.6 61.9 58 8.3 47
23:10 1022 30.18 851 25.13 16.5 61.7 58 8.4 47
23:15 1022 30.18 851 25.13 16.4 61.5 58 8.3 47
23:20 1022 30.18 851 25.13 16.4 61.4 59 8.4 47.1
23:25 1022 30.18 851 25.13 16.2 61.2 59 8.3 46.9
23:30 1022 30.18 851 25.13 16.1 61.1 59 8.3 46.9
23:35 1022 30.18 851 25.13 16.1 60.9 60 8.3 47
23:40 1022 30.18 851 25.13 15.9 60.7 60 8.3 46.9
23:45 1022 30.18 851 25.13 15.9 60.5 60 8.2 46.8
23:50 1022 30.18 851 25.13 15.8 60.5 60 8.2 46.7
23:55 1022 30.18 851 25.13 15.8 60.5 60 8.2 46.7
24:00 1022 30.18 851 25.13 15.8 60.4 60 8.2 46.8